Time;durP1;ratioP1;P1;durP2;ratioP2;P2;SDS_P1;SDS_P2;PMS_P1;PMS_P2;Temp;Humidity;BMP_temperature;BMP_pressure;BME280_temperature;BME280_humidity;BME280_pressure;Samples;Min_cycle;Max_cycle;Signal;HPM_P1;HPM_P2
2021/01/01 00:01:46;;;;;;;134.97;47.70;;;;;;;5.86;100.00;99140.50;1778099;79;21375;-53
2021/01/01 00:04:14;;;;;;;115.42;43.17;;;;;;;5.84;100.00;99141.91;1776863;79;21586;-52
2021/01/01 00:09:12;;;;;;;143.35;57.05;;;;;;;5.89;100.00;99133.70;1729679;79;22830;-54
2021/01/01 00:11:41;;;;;;;123.35;48.05;;;;;;;5.83;100.00;99133.95;1695483;82;21112;-51
2021/01/01 00:14:13;;;;;;;116.05;45.70;;;;;;;5.82;100.00;99140.25;1694671;81;21154;-55
2021/01/01 00:16:44;;;;;;;127.72;46.20;;;;;;;5.78;100.00;99143.03;1696373;82;20970;-53
2021/01/01 00:19:13;;;;;;;109.78;43.45;;;;;;;5.77;100.00;99127.92;1698690;82;21525;-54
2021/01/01 00:21:41;;;;;;;112.45;42.15;;;;;;;5.78;100.00;99133.67;1698027;82;21010;-54
2021/01/01 00:24:10;;;;;;;96.28;40.88;;;;;;;5.77;100.00;99131.93;1693143;82;21037;-53
2021/01/01 00:26:38;;;;;;;100.18;40.48;;;;;;;5.78;100.00;99137.68;1702396;82;22267;-56
2021/01/01 00:29:07;;;;;;;111.85;43.08;;;;;;;5.77;100.00;99127.92;1702520;82;20978;-53
2021/01/01 00:31:35;;;;;;;106.03;44.45;;;;;;;5.76;100.00;99118.16;1649994;82;21006;-55
2021/01/01 00:34:04;;;;;;;133.30;46.53;;;;;;;5.76;100.00;99117.29;1696242;82;21116;-54
2021/01/01 00:36:32;;;;;;;118.75;43.25;;;;;;;5.77;100.00;99114.55;1694671;82;21002;-52
2021/01/01 00:39:00;;;;;;;132.87;44.98;;;;;;;5.76;100.00;99115.48;1697125;82;21427;-54
2021/01/01 00:41:31;;;;;;;140.25;46.53;;;;;;;5.74;100.00;99106.63;1696048;82;21014;-53
2021/01/01 00:43:59;;;;;;;118.47;44.93;;;;;;;5.75;100.00;99109.73;1694486;82;21029;-56
2021/01/01 00:46:28;;;;;;;99.58;38.95;;;;;;;5.77;100.00;99106.52;1701719;82;21203;-53
2021/01/01 00:48:58;;;;;;;89.52;39.53;;;;;;;5.81;100.00;99101.05;1695898;82;21183;-53
2021/01/01 00:51:28;;;;;;;104.92;42.23;;;;;;;5.85;100.00;99103.98;1703252;82;21280;-55
2021/01/01 00:53:57;;;;;;;105.55;41.23;;;;;;;5.90;100.00;99098.84;1703360;82;21156;-53
2021/01/01 00:56:25;;;;;;;111.70;41.92;;;;;;;5.94;100.00;99096.95;1695725;82;21160;-59
2021/01/01 00:58:54;;;;;;;107.85;39.38;;;;;;;5.98;100.00;99090.54;1695298;82;21184;-54
2021/01/01 01:01:25;;;;;;;106.78;40.52;;;;;;;6.04;100.00;99090.28;1695619;82;21541;-52
2021/01/01 01:03:56;;;;;;;105.55;38.28;;;;;;;6.07;100.00;99086.11;1697828;82;21342;-55
2021/01/01 01:06:31;;;;;;;113.20;41.35;;;;;;;6.13;100.00;99089.89;1817109;76;22804;-54
2021/01/01 01:09:00;;;;;;;129.47;43.60;;;;;;;6.09;100.00;99090.95;1815706;76;20982;-54
2021/01/01 01:11:29;;;;;;;111.72;41.48;;;;;;;6.10;100.00;99083.79;1790670;77;21369;-53
2021/01/01 01:13:57;;;;;;;122.00;43.38;;;;;;;6.09;100.00;99086.94;1787006;77;21006;-54
2021/01/01 01:16:27;;;;;;;118.85;41.18;;;;;;;6.08;100.00;99083.86;1792812;77;21025;-54
2021/01/01 01:18:56;;;;;;;145.05;46.42;;;;;;;6.07;100.00;99076.74;1790272;77;20966;-55
2021/01/01 01:21:24;;;;;;;127.85;43.20;;;;;;;6.06;100.00;99075.01;1787116;77;21722;-54
2021/01/01 01:23:52;;;;;;;101.33;39.53;;;;;;;6.07;100.00;99071.39;1793191;77;21363;-52
2021/01/01 01:26:20;;;;;;;171.07;49.40;;;;;;;6.06;100.00;99070.99;1788469;77;21009;-53
2021/01/01 01:28:49;;;;;;;166.55;50.10;;;;;;;6.06;100.00;99064.30;1787613;77;21565;-54
2021/01/01 01:31:17;;;;;;;130.35;42.83;;;;;;;6.04;100.00;99063.52;1789167;77;20981;-49
2021/01/01 01:33:45;;;;;;;136.10;47.35;;;;;;;6.03;100.00;99057.77;1788888;77;21100;-56
2021/01/01 01:36:13;;;;;;;159.40;47.90;;;;;;;6.02;100.00;99056.03;1787612;77;21370;-53
2021/01/01 01:38:42;;;;;;;114.92;41.77;;;;;;;6.00;100.00;99053.86;1787274;77;20998;-55
2021/01/01 01:41:09;;;;;;;91.08;37.20;;;;;;;6.00;100.00;99059.22;1790595;77;21056;-54
2021/01/01 01:43:38;;;;;;;127.92;42.13;;;;;;;5.98;100.00;99053.08;1787903;77;20978;-53
2021/01/01 01:46:05;;;;;;;115.12;40.45;;;;;;;5.96;100.00;99053.59;1790170;77;21565;-53
2021/01/01 01:48:36;;;;;;;91.47;35.90;;;;;;;5.96;100.00;99052.25;1790898;77;21193;-53
2021/01/01 01:51:08;;;;;;;;;;;;;;;5.96;100.00;99053.11;1790817;77;21124;-54
2021/01/01 01:53:42;;;;;;;122.70;41.28;;;;;;;5.97;100.00;99052.67;1788715;77;20527;-52
2021/01/01 01:56:11;;;;;;;127.92;42.75;;;;;;;5.98;100.00;99058.42;1788237;77;21554;-53
2021/01/01 01:58:40;;;;;;;128.05;43.65;;;;;;;5.98;100.00;99049.06;1790470;77;21104;-54
2021/01/01 02:01:08;;;;;;;120.87;43.40;;;;;;;5.99;100.00;99052.12;1788772;77;21383;-53
2021/01/01 02:03:36;;;;;;;104.47;40.85;;;;;;;5.99;100.00;99049.45;1792533;77;21004;-55
2021/01/01 02:06:04;;;;;;;157.75;49.53;;;;;;;5.96;100.00;99049.09;1788741;77;21584;-54
2021/01/01 02:08:33;;;;;;;155.65;50.55;;;;;;;5.94;100.00;99048.78;1789979;77;21972;-52
2021/01/01 02:11:02;;;;;;;171.32;54.10;;;;;;;5.94;100.00;99038.94;1792028;77;21608;-52
2021/01/01 02:13:30;;;;;;;146.72;49.05;;;;;;;5.95;100.00;99034.45;1787122;77;21639;-55
2021/01/01 02:15:58;;;;;;;114.40;39.33;;;;;;;5.97;100.00;99024.58;1760010;77;21612;-54
2021/01/01 02:18:42;;;;;;;99.50;36.90;;;;;;;5.99;100.00;99020.02;1763203;77;21138;-54
2021/01/01 02:21:16;;;;;;;130.03;43.87;;;;;;;5.98;100.00;99017.81;1794248;77;21104;-53
2021/01/01 02:23:44;;;;;;;139.32;47.88;;;;;;;5.97;100.00;99025.91;1793311;77;20990;-54
2021/01/01 02:26:12;;;;;;;104.40;41.48;;;;;;;5.96;100.00;99021.47;1788750;77;22189;-54
2021/01/01 02:28:40;;;;;;;121.47;42.93;;;;;;;5.98;100.00;99022.30;1788579;77;21005;-54
2021/01/01 02:31:08;;;;;;;89.30;38.40;;;;;;;5.99;100.00;99022.22;1791129;77;21175;-53
2021/01/01 02:33:36;;;;;;;118.57;45.85;;;;;;;6.02;100.00;99030.60;1786893;77;21096;-54
2021/01/01 02:36:05;;;;;;;98.60;39.75;;;;;;;6.02;100.00;99022.57;1792257;77;21723;-51
2021/01/01 02:38:32;;;;;;;121.05;44.13;;;;;;;6.01;100.00;99026.16;1789245;77;21369;-53
2021/01/01 02:41:01;;;;;;;122.00;44.67;;;;;;;6.02;100.00;99022.57;1789119;77;20933;-53
2021/01/01 02:43:29;;;;;;;88.45;38.90;;;;;;;6.03;100.00;99013.60;1788807;77;21143;-53
2021/01/01 02:45:56;;;;;;;96.85;40.60;;;;;;;6.03;100.00;99002.89;1788337;77;21116;-52
2021/01/01 02:48:24;;;;;;;108.60;42.83;;;;;;;6.03;100.00;99009.59;1789168;77;21023;-54
2021/01/01 02:50:52;;;;;;;94.13;42.80;;;;;;;6.02;100.00;99004.70;1788208;77;21332;-53
2021/01/01 02:53:20;;;;;;;133.67;47.33;;;;;;;6.03;100.00;99006.91;1788207;77;20981;-53
2021/01/01 02:55:49;;;;;;;144.25;51.85;;;;;;;6.05;100.00;98998.33;1791747;77;21155;-52
2021/01/01 02:58:17;;;;;;;104.10;42.95;;;;;;;6.06;100.00;98994.71;1789132;77;20969;-54
2021/01/01 03:00:48;;;;;;;91.47;42.35;;;;;;;6.05;100.00;98990.30;1792571;77;21147;-53
2021/01/01 03:03:16;;;;;;;110.70;44.73;;;;;;;6.04;100.00;98991.25;1797792;77;21364;-53
2021/01/01 03:05:45;;;;;;;140.85;54.90;;;;;;;6.07;100.00;98983.53;1792361;77;21654;-52
2021/01/01 03:08:13;;;;;;;120.37;47.23;;;;;;;6.07;100.00;98975.03;1804567;76;21697;-51
2021/01/01 03:10:41;;;;;;;90.85;41.75;;;;;;;6.07;100.00;98977.70;1803464;76;21020;-52
2021/01/01 03:13:09;;;;;;;133.05;48.50;;;;;;;6.08;100.00;98971.45;1804012;76;21723;-51
2021/01/01 03:15:37;;;;;;;137.72;50.75;;;;;;;6.10;100.00;98966.88;1803607;77;21362;-52
2021/01/01 03:18:05;;;;;;;171.15;58.52;;;;;;;6.11;100.00;98959.25;1804310;77;21167;-54
2021/01/01 03:20:33;;;;;;;169.75;57.80;;;;;;;6.13;100.00;98963.22;1802678;76;21173;-54
2021/01/01 03:23:01;;;;;;;136.40;53.85;;;;;;;6.13;100.00;98961.41;1801544;76;20961;-53
2021/01/01 03:25:29;;;;;;;121.72;48.90;;;;;;;6.16;100.00;98955.89;1801733;76;21135;-53
2021/01/01 03:27:57;;;;;;;115.95;47.25;;;;;;;6.16;100.00;98949.20;1802037;76;21485;-53
2021/01/01 03:30:25;;;;;;;110.12;45.92;;;;;;;6.16;100.00;98950.53;1802506;76;21020;-52
2021/01/01 03:32:54;;;;;;;109.87;46.33;;;;;;;6.17;100.00;98936.20;1800806;77;20993;-54
2021/01/01 03:35:22;;;;;;;90.50;42.58;;;;;;;6.19;100.00;98943.72;1807681;76;21151;-53
2021/01/01 03:37:50;;;;;;;97.60;41.70;;;;;;;6.21;100.00;98951.20;1803613;76;21091;-53
2021/01/01 03:40:17;;;;;;;90.10;41.92;;;;;;;6.23;100.00;98939.97;1805527;76;21366;-53
2021/01/01 03:42:45;;;;;;;99.40;42.65;;;;;;;6.24;100.00;98937.69;1805202;76;21471;-52
2021/01/01 03:45:14;;;;;;;90.32;41.85;;;;;;;6.26;100.00;98930.45;1802093;77;20993;-52
2021/01/01 03:47:42;;;;;;;137.90;50.40;;;;;;;6.28;100.00;98930.36;1800929;76;20955;-54
2021/01/01 03:50:10;;;;;;;153.25;55.63;;;;;;;6.32;100.00;98925.27;1803332;76;21663;-54
2021/01/01 03:52:38;;;;;;;125.33;48.95;;;;;;;6.34;100.00;98914.48;1807556;76;22158;-54
2021/01/01 03:55:07;;;;;;;94.00;42.43;;;;;;;6.38;100.00;98924.12;1803701;76;21189;-52
2021/01/01 03:57:35;;;;;;;120.37;45.85;;;;;;;6.38;100.00;98925.45;1809958;77;21044;-54
2021/01/01 04:00:08;;;;;;;126.45;49.05;;;;;;;6.40;100.00;98928.95;1803735;76;21108;-53
2021/01/01 04:02:41;;;;;;;106.00;42.93;;;;;;;6.41;100.00;98930.69;1803779;76;21114;-53
2021/01/01 04:05:10;;;;;;;104.90;43.78;;;;;;;6.40;100.00;98936.98;1802890;76;21657;-54
2021/01/01 04:07:38;;;;;;;120.57;47.45;;;;;;;6.39;100.00;98927.19;1789222;77;21140;-53
2021/01/01 04:10:07;;;;;;;153.68;54.55;;;;;;;6.41;100.00;98933.36;1787836;77;21533;-54
2021/01/01 04:12:35;;;;;;;206.10;64.65;;;;;;;6.40;100.00;98921.78;1787973;77;21005;-53
2021/01/01 04:15:04;;;;;;;153.20;53.80;;;;;;;6.39;100.00;98916.48;1792302;77;20958;-51
2021/01/01 04:17:32;;;;;;;127.42;49.18;;;;;;;6.35;100.00;98919.79;1787827;77;22937;-51
2021/01/01 04:20:00;;;;;;;123.40;45.43;;;;;;;6.33;100.00;98911.41;1791639;77;20979;-52
2021/01/01 04:22:28;;;;;;;99.22;42.88;;;;;;;6.30;100.00;98894.56;1789895;77;20993;-52
2021/01/01 04:24:56;;;;;;;67.97;35.83;;;;;;;6.27;100.00;98889.34;1791439;77;20938;-52
2021/01/01 04:27:24;;;;;;;71.62;36.10;;;;;;;6.22;100.00;98886.00;1791093;77;21979;-51
2021/01/01 04:29:52;;;;;;;68.87;36.35;;;;;;;6.19;100.00;98883.48;1788794;77;21188;-52
2021/01/01 04:32:20;;;;;;;103.53;43.28;;;;;;;6.15;100.00;98891.73;1788117;77;21550;-51
2021/01/01 04:34:48;;;;;;;125.20;47.13;;;;;;;6.11;100.00;98882.95;1789227;77;21127;-51
2021/01/01 04:37:16;;;;;;;73.22;36.88;;;;;;;6.11;100.00;98892.80;1786784;77;21112;-51
2021/01/01 04:39:44;;;;;;;82.22;37.60;;;;;;;6.08;100.00;98888.47;1793449;77;21530;-50
2021/01/01 04:42:12;;;;;;;120.97;45.30;;;;;;;6.06;100.00;98883.64;1793694;77;21334;-51
2021/01/01 04:44:39;;;;;;;116.05;45.48;;;;;;;6.04;100.00;98885.06;1787506;77;20978;-51
2021/01/01 04:47:07;;;;;;;82.90;35.63;;;;;;;6.03;100.00;98887.81;1796373;77;20985;-51
2021/01/01 04:49:35;;;;;;;94.87;39.80;;;;;;;5.99;100.00;98902.27;1794906;77;20995;-52
2021/01/01 04:52:04;;;;;;;126.00;45.52;;;;;;;5.97;100.00;98920.20;1788788;77;20926;-51
2021/01/01 04:54:33;;;;;;;115.85;41.70;;;;;;;5.94;100.00;98893.57;1788412;77;21392;-54
2021/01/01 04:57:01;;;;;;;141.57;46.58;;;;;;;5.89;100.00;98887.52;1786385;77;20994;-52
2021/01/01 04:59:30;;;;;;;91.65;36.00;;;;;;;5.84;100.00;98873.48;1788730;77;21628;-52
2021/01/01 05:01:58;;;;;;;92.75;35.50;;;;;;;5.78;100.00;98876.83;1790400;77;21577;-52
2021/01/01 05:04:25;;;;;;;99.65;35.50;;;;;;;5.73;100.00;98863.27;1787114;77;20962;-53
2021/01/01 05:06:54;;;;;;;64.55;30.88;;;;;;;5.70;100.00;98860.72;1788873;77;21560;-51
2021/01/01 05:09:23;;;;;;;104.63;36.03;;;;;;;5.67;100.00;98844.35;1756682;77;21556;-52
2021/01/01 05:12:09;;;;;;;69.17;30.95;;;;;;;5.64;100.00;98829.77;1788321;77;21503;-51
2021/01/01 05:14:37;;;;;;;46.55;26.87;;;;;;;5.63;100.00;98840.55;1763271;77;21092;-53
2021/01/01 05:17:05;;;;;;;54.95;26.73;;;;;;;5.60;100.00;98844.23;1788111;77;21124;-52
2021/01/01 05:19:38;;;;;;;112.03;37.15;;;;;;;5.59;100.00;98863.87;1787858;77;22239;-52
2021/01/01 05:22:10;;;;;;;121.70;41.50;;;;;;;5.58;100.00;98854.11;1789223;77;21005;-53
2021/01/01 05:24:46;;;;;;;127.55;41.00;;;;;;;5.59;100.00;98863.87;1790153;77;21128;-52
2021/01/01 05:27:16;;;;;;;133.22;42.25;;;;;;;5.60;100.00;98848.25;1786122;77;21104;-53
2021/01/01 05:29:54;;;;;;;142.32;45.83;;;;;;;5.61;100.00;98858.00;1788035;77;21109;-51
2021/01/01 05:32:30;;;;;;;96.37;34.78;;;;;;;5.62;100.00;98851.71;1789849;77;22218;-51
2021/01/01 05:34:59;;;;;;;110.75;37.20;;;;;;;5.62;100.00;98843.69;1792175;77;22050;-52
2021/01/01 05:37:31;;;;;;;127.30;42.05;;;;;;;5.64;100.00;98856.52;1788037;77;21171;-51
2021/01/01 05:40:05;;;;;;;95.75;34.38;;;;;;;5.66;100.00;98855.99;1788069;77;21538;-50
2021/01/01 05:42:35;;;;;;;94.80;37.05;;;;;;;5.68;100.00;98856.78;1789619;77;21108;-51
2021/01/01 05:45:16;;;;;;;101.22;38.55;;;;;;;5.74;100.00;98853.83;1817135;76;22585;-51
2021/01/01 05:48:06;;;;;;;102.27;41.00;;;;;;;5.70;100.00;98861.61;1785004;77;21573;-51
2021/01/01 05:50:34;;;;;;;82.80;34.50;;;;;;;5.73;100.00;98847.22;1750140;78;21401;-51
2021/01/01 05:53:19;;;;;;;66.17;30.37;;;;;;;5.73;100.00;98856.11;1741847;79;21102;-51
2021/01/01 05:55:55;;;;;;;55.30;29.32;;;;;;;5.78;100.00;98848.75;1815121;76;22687;-50
2021/01/01 05:58:26;;;;;;;58.83;31.17;;;;;;;5.75;100.00;98852.91;1773408;78;20989;-51
2021/01/01 06:00:58;;;;;;;59.93;30.10;;;;;;;5.74;100.00;98847.14;1815535;77;21636;-53
2021/01/01 06:03:33;;;;;;;65.28;31.82;;;;;;;5.74;100.00;98844.94;1813861;77;21010;-52
2021/01/01 06:06:04;;;;;;;;;;;;;;;5.74;100.00;98849.81;1816258;77;21537;-52
2021/01/01 06:08:31;;;;;;;48.08;27.05;;;;;;;5.79;100.00;98845.59;1814503;77;20165;-52
2021/01/01 06:11:03;;;;;;;49.30;28.23;;;;;;;5.76;100.00;98839.94;1812875;77;21107;-51
2021/01/01 06:13:36;;;;;;;43.90;27.22;;;;;;;5.76;100.00;98841.74;1812885;77;22231;-51
2021/01/01 06:16:09;;;;;;;50.52;28.98;;;;;;;5.79;100.00;98835.77;1813243;77;20978;-52
2021/01/01 06:18:35;;;;;;;;;;;;;;;5.81;100.00;98841.54;1814805;77;20962;-51
2021/01/01 06:21:05;;;;;;;54.38;30.57;;;;;;;5.81;100.00;98844.22;1814043;77;20272;-51
2021/01/01 06:23:39;;;;;;;56.65;29.72;;;;;;;5.83;100.00;98836.97;1813450;77;21500;-52
2021/01/01 06:26:10;;;;;;;66.28;31.62;;;;;;;5.83;100.00;98837.84;1814603;77;21104;-51
2021/01/01 06:28:43;;;;;;;74.53;33.53;;;;;;;5.84;100.00;98842.24;1815501;77;21013;-51
2021/01/01 06:31:11;;;;;;;54.88;28.60;;;;;;;5.87;100.00;98838.58;1813648;77;21140;-53
2021/01/01 06:33:43;;;;;;;51.23;26.95;;;;;;;5.89;100.00;98836.69;1814237;77;21071;-51
2021/01/01 06:36:36;;;;;;;62.13;30.70;;;;;;;5.89;100.00;98831.34;1813300;77;21092;-52
2021/01/01 06:39:04;;;;;;;59.30;31.05;;;;;;;5.90;100.00;98829.05;1812450;77;21207;-51
2021/01/01 06:41:45;;;;;;;49.08;26.45;;;;;;;5.93;100.00;98832.97;1813823;77;21117;-51
2021/01/01 06:44:42;;;;;;;45.45;25.82;;;;;;;5.94;100.00;98834.70;1811884;77;21441;-51
2021/01/01 06:47:10;;;;;;;48.45;27.42;;;;;;;5.94;100.00;98837.38;1812996;77;21096;-52
2021/01/01 06:49:39;;;;;;;49.80;26.87;;;;;;;5.94;100.00;98832.03;1810963;77;20994;-51
2021/01/01 06:52:18;;;;;;;38.60;24.15;;;;;;;5.96;100.00;98832.81;1813578;77;21358;-52
2021/01/01 06:54:58;;;;;;;42.67;25.08;;;;;;;6.01;100.00;98829.45;1809894;77;21014;-52
2021/01/01 06:57:29;;;;;;;41.37;25.52;;;;;;;6.03;100.00;98831.61;1802478;77;21319;-51
2021/01/01 07:00:07;;;;;;;41.98;24.57;;;;;;;6.12;100.00;98825.80;1789571;76;22814;-51
2021/01/01 07:02:36;;;;;;;42.30;25.37;;;;;;;6.08;100.00;98824.23;1753567;79;21538;-51
2021/01/01 07:05:04;;;;;;;43.48;25.82;;;;;;;6.11;100.00;98837.45;1759087;79;21423;-54
2021/01/01 07:07:43;;;;;;;42.20;25.70;;;;;;;6.15;100.00;98836.38;1759234;78;21171;-52
2021/01/01 07:10:17;;;;;;;44.67;26.15;;;;;;;6.16;100.00;98832.76;1759254;79;20981;-54
2021/01/01 07:12:45;;;;;;;42.85;23.15;;;;;;;6.16;100.00;98827.41;1751619;79;20969;-50
2021/01/01 07:15:32;;;;;;;42.93;25.35;;;;;;;6.18;100.00;98829.55;1758503;79;20981;-51
2021/01/01 07:18:00;;;;;;;50.48;28.50;;;;;;;6.19;100.00;98829.95;1758867;79;22242;-52
2021/01/01 07:20:28;;;;;;;48.00;27.20;;;;;;;6.25;100.00;98837.69;1759197;79;20962;-52
2021/01/01 07:23:00;;;;;;;47.38;25.08;;;;;;;6.27;100.00;98834.45;1760038;79;21024;-51
2021/01/01 07:25:38;;;;;;;44.20;25.25;;;;;;;6.28;100.00;98841.57;1766651;79;21120;-51
2021/01/01 07:28:07;;;;;;;45.30;25.88;;;;;;;6.27;100.00;98835.79;1755889;78;22203;-52
2021/01/01 07:30:35;;;;;;;45.92;27.62;;;;;;;6.25;100.00;98845.72;1757154;78;21667;-53
2021/01/01 07:33:03;;;;;;;46.37;26.23;;;;;;;6.27;100.00;98846.50;1757863;79;21108;-52
2021/01/01 07:35:31;;;;;;;44.18;24.23;;;;;;;6.30;100.00;98843.69;1759399;79;21033;-53
2021/01/01 07:37:59;;;;;;;44.33;23.40;;;;;;;6.31;100.00;98848.57;1757092;79;21650;-51
2021/01/01 07:40:28;;;;;;;42.65;25.43;;;;;;;6.33;100.00;98848.48;1747686;79;20930;-50
2021/01/01 07:42:55;;;;;;;46.80;25.85;;;;;;;6.35;100.00;98854.66;1759013;79;21381;-51
2021/01/01 07:45:24;;;;;;;31.85;21.17;;;;;;;6.40;100.00;98857.52;1757214;79;21493;-54
2021/01/01 07:47:52;;;;;;;39.88;23.57;;;;;;;6.47;100.00;98854.06;1766755;79;21052;-51
2021/01/01 07:50:20;;;;;;;39.35;24.52;;;;;;;6.49;100.00;98856.19;1763748;79;21028;-51
2021/01/01 07:52:48;;;;;;;39.50;21.20;;;;;;;6.52;100.00;98853.38;1760319;78;21664;-50
2021/01/01 07:55:21;;;;;;;40.00;22.87;;;;;;;6.56;100.00;98854.97;1697062;80;21367;-51
2021/01/01 07:57:49;;;;;;;41.23;23.02;;;;;;;6.56;100.00;98854.97;1729843;80;21035;-50
2021/01/01 08:00:18;;;;;;;39.50;22.35;;;;;;;6.56;100.00;98861.19;1729070;80;21177;-53
2021/01/01 08:02:47;;;;;;;33.05;20.92;;;;;;;6.62;100.00;98854.67;1721240;80;21165;-52
2021/01/01 08:05:15;;;;;;;36.38;21.12;;;;;;;6.64;100.00;98851.91;1750958;79;21554;-51
2021/01/01 08:07:43;;;;;;;31.97;20.30;;;;;;;6.66;100.00;98857.60;1765482;79;21355;-53
2021/01/01 08:10:11;;;;;;;38.75;22.30;;;;;;;6.66;100.00;98850.91;1765244;79;21175;-51
2021/01/01 08:12:53;;;;;;;34.40;22.10;;;;;;;6.69;100.00;98861.45;1762096;79;21186;-50
2021/01/01 08:15:30;;;;;;;43.52;27.50;;;;;;;6.73;100.00;98872.42;1759155;79;21159;-52
2021/01/01 08:18:16;;;;;;;49.55;28.10;;;;;;;6.72;100.00;98877.39;1764589;79;21130;-52
2021/01/01 08:20:46;;;;;;;51.83;34.13;;;;;;;6.73;100.00;98876.45;1760233;79;21916;-52
2021/01/01 08:23:18;;;;;;;50.00;30.57;;;;;;;6.74;100.00;98879.52;1762775;79;21167;-50
2021/01/01 08:25:47;;;;;;;45.52;31.15;;;;;;;6.77;100.00;98870.00;1758947;79;20985;-52
2021/01/01 08:28:19;;;;;;;53.00;32.53;;;;;;;6.79;100.00;98873.94;1759552;79;20989;-58
2021/01/01 08:30:58;;;;;;;56.48;34.88;;;;;;;6.83;100.00;98869.69;1761100;79;20945;-51
2021/01/01 08:33:27;;;;;;;54.70;33.40;;;;;;;6.85;100.00;98887.50;1762435;79;21336;-53
2021/01/01 08:36:02;;;;;;;48.38;28.90;;;;;;;6.90;100.00;98885.47;1759226;79;21186;-54
2021/01/01 08:38:42;;;;;;;48.28;28.62;;;;;;;6.95;100.00;98886.11;1810541;76;22786;-54
2021/01/01 08:41:18;;;;;;;41.83;23.35;;;;;;;6.92;100.00;98892.95;1766383;78;20973;-53
2021/01/01 08:43:46;;;;;;;34.27;21.52;;;;;;;6.94;100.00;98889.74;1766502;79;21363;-54
2021/01/01 08:46:15;;;;;;;29.27;18.92;;;;;;;6.97;100.00;98897.61;1768046;79;21041;-50
2021/01/01 08:48:43;;;;;;;31.02;19.60;;;;;;;7.00;100.00;98902.84;1764110;79;21045;-51
2021/01/01 08:51:12;;;;;;;33.02;19.02;;;;;;;7.00;100.00;98905.52;1767463;79;20961;-59
2021/01/01 08:53:40;;;;;;;27.02;17.85;;;;;;;7.02;100.00;98908.98;1767612;79;21647;-56
2021/01/01 08:56:08;;;;;;;33.40;19.00;;;;;;;7.04;100.00;98916.02;1759821;79;21360;-54
2021/01/01 08:58:36;;;;;;;29.90;18.98;;;;;;;7.08;100.00;98923.41;1761089;78;20977;-55
2021/01/01 09:01:16;;;;;;;24.32;16.77;;;;;;;7.11;100.00;98921.94;1760759;79;20986;-56
2021/01/01 09:03:44;;;;;;;26.70;17.35;;;;;;;7.15;100.00;98931.58;1762544;78;21616;-56
2021/01/01 09:06:18;;;;;;;32.35;18.23;;;;;;;7.20;100.00;98930.88;1768119;79;20978;-58
2021/01/01 09:08:46;;;;;;;26.55;17.02;;;;;;;7.24;100.00;98932.91;1761782;79;21381;-55
2021/01/01 09:11:24;;;;;;;23.62;16.48;;;;;;;7.29;100.00;98935.75;1762558;79;21021;-57
2021/01/01 09:14:03;;;;;;;30.43;17.57;;;;;;;7.34;100.00;98932.38;1759391;79;21187;-56
2021/01/01 09:16:32;;;;;;;32.03;18.50;;;;;;;7.39;100.00;98928.59;1762080;79;21671;-56
2021/01/01 09:19:09;;;;;;;25.88;16.52;;;;;;;7.42;100.00;98923.95;1762990;79;21550;-55
2021/01/01 09:21:37;;;;;;;24.87;16.75;;;;;;;7.48;100.00;98937.53;1759726;78;21371;-57
2021/01/01 09:24:07;;;;;;;31.20;18.32;;;;;;;7.54;100.00;98930.50;1766645;79;21108;-58
2021/01/01 09:26:36;;;;;;;28.95;18.02;;;;;;;7.59;100.00;98939.19;1767721;78;21009;-56
2021/01/01 09:29:06;;;;;;;26.97;15.80;;;;;;;7.61;100.00;98943.98;1764454;79;21648;-57
2021/01/01 09:31:36;;;;;;;26.00;16.57;;;;;;;7.68;100.00;98952.14;1767069;78;21556;-55
2021/01/01 09:34:06;;;;;;;33.13;17.12;;;;;;;7.70;100.00;98951.58;1696656;82;21215;-56
2021/01/01 09:36:41;;;;;;;27.17;16.52;;;;;;;7.72;100.00;98948.33;1710223;81;20985;-56
2021/01/01 09:39:14;;;;;;;25.82;15.35;;;;;;;7.78;100.00;98953.41;1766542;79;21548;-57
2021/01/01 09:41:48;;;;;;;27.05;15.90;;;;;;;7.81;100.00;98945.18;1767031;79;21140;-58
2021/01/01 09:44:19;;;;;;;22.42;14.33;;;;;;;7.85;100.00;98945.42;1768755;79;21700;-57
2021/01/01 09:46:49;;;;;;;26.82;16.82;;;;;;;7.90;100.00;98944.32;1771706;79;21244;-57
2021/01/01 09:49:19;;;;;;;21.20;16.17;;;;;;;7.96;100.00;98945.34;1759910;79;21187;-57
2021/01/01 09:51:48;;;;;;;22.73;15.72;;;;;;;8.03;100.00;98950.77;1759468;79;21048;-58
2021/01/01 09:54:18;;;;;;;21.87;15.72;;;;;;;8.08;100.00;98950.05;1760526;79;21552;-59
2021/01/01 09:56:48;;;;;;;21.50;13.22;;;;;;;8.10;100.00;98946.34;1758698;79;21171;-57
2021/01/01 09:59:16;;;;;;;21.12;13.88;;;;;;;8.16;100.00;98947.84;1764924;79;21826;-59
2021/01/01 10:01:44;;;;;;;22.58;13.32;;;;;;;8.20;100.00;98949.39;1763230;79;21418;-59
2021/01/01 10:04:12;;;;;;;21.07;13.40;;;;;;;8.25;100.00;98948.67;1767930;79;21361;-60
2021/01/01 10:06:43;;;;;;;19.35;12.65;;;;;;;8.29;100.00;98946.22;1756540;79;21139;-62
2021/01/01 10:09:12;;;;;;;17.10;11.88;;;;;;;8.33;100.00;98945.11;1760711;79;21211;-59
2021/01/01 10:11:49;;;;;;;19.82;12.23;;;;;;;8.37;100.00;98949.41;1757743;79;21190;-59
2021/01/01 10:14:19;;;;;;;16.65;12.25;;;;;;;8.43;100.00;98955.40;1758913;79;21427;-61
2021/01/01 10:16:50;;;;;;;14.63;11.43;;;;;;;8.47;100.00;98955.16;1758878;79;21600;-58
2021/01/01 10:19:19;;;;;;;14.63;10.78;;;;;;;8.49;100.00;98955.06;1758244;79;21005;-59
2021/01/01 10:21:50;;;;;;;16.05;10.90;;;;;;;8.52;100.00;98965.63;1762478;79;21124;-56
2021/01/01 10:24:18;;;;;;;16.35;11.03;;;;;;;8.54;100.00;98959.70;1765688;79;21430;-58
2021/01/01 10:26:49;;;;;;;14.10;10.03;;;;;;;8.58;100.00;98965.31;1770130;79;21646;-53
2021/01/01 10:29:19;;;;;;;13.33;9.70;;;;;;;8.61;100.00;98965.99;1757670;79;21164;-52
2021/01/01 10:31:48;;;;;;;14.65;9.90;;;;;;;8.64;100.00;98958.25;1767041;79;21184;-54
2021/01/01 10:34:16;;;;;;;15.13;9.03;;;;;;;8.67;100.00;98950.00;1759842;79;21136;-53
2021/01/01 10:36:45;;;;;;;11.45;8.65;;;;;;;8.69;100.00;98953.49;1762796;79;21268;-56
2021/01/01 10:39:15;;;;;;;10.32;7.50;;;;;;;8.70;100.00;98956.56;1756581;79;21235;-57
2021/01/01 10:41:47;;;;;;;13.43;8.35;;;;;;;8.73;100.00;98958.20;1758846;79;21041;-57
2021/01/01 10:44:16;;;;;;;9.50;7.35;;;;;;;8.74;100.00;98963.52;1730554;79;21069;-55
2021/01/01 10:46:52;;;;;;;9.20;7.25;;;;;;;8.76;100.00;98964.28;1750301;79;21138;-54
2021/01/01 10:49:21;;;;;;;10.13;7.60;;;;;;;8.77;100.00;98966.02;1760281;79;21190;-58
2021/01/01 10:51:49;;;;;;;10.30;6.72;;;;;;;8.78;100.00;98975.81;1759861;79;21148;-59
2021/01/01 10:54:17;;;;;;;9.58;6.58;;;;;;;8.79;100.00;98970.85;1763585;79;21219;-60
2021/01/01 10:56:46;;;;;;;9.03;6.67;;;;;;;8.78;100.00;98967.74;1763599;79;21127;-59
2021/01/01 10:59:16;;;;;;;9.08;6.35;;;;;;;8.77;100.00;98976.77;1759734;79;21170;-55
2021/01/01 11:01:45;;;;;;;9.43;6.37;;;;;;;8.78;100.00;98983.02;1754418;79;22344;-55
2021/01/01 11:04:13;;;;;;;11.73;7.05;;;;;;;8.78;100.00;98973.13;1765496;79;21053;-58
2021/01/01 11:06:44;;;;;;;13.25;6.80;;;;;;;8.80;100.00;98980.64;1759851;79;21942;-62
2021/01/01 11:09:13;;;;;;;;;;;;;;;8.84;100.00;98978.19;1760954;79;21010;-55
2021/01/01 11:11:41;;;;;;;9.30;6.87;;;;;;;8.85;100.00;98982.60;1763202;79;20280;-59
2021/01/01 12:27:04;;;;;;;10.72;7.65;;;;;;;9.23;100.00;99041.45;1800284;77;20969;-51
2021/01/01 12:29:32;;;;;;;10.43;7.50;;;;;;;9.21;100.00;99040.64;1799662;77;22002;-52
2021/01/01 12:32:02;;;;;;;9.50;6.97;;;;;;;9.20;100.00;99038.91;1802344;77;21012;-53
2021/01/01 12:34:33;;;;;;;13.13;7.40;;;;;;;9.19;100.00;99043.91;1765789;78;21042;-52
2021/01/01 12:37:02;;;;;;;9.10;6.78;;;;;;;9.19;100.00;99042.56;1743283;79;21430;-53
2021/01/01 12:39:30;;;;;;;8.80;6.40;;;;;;;9.18;100.00;99040.84;1765174;79;21582;-54
2021/01/01 12:41:59;;;;;;;11.60;6.67;;;;;;;9.19;100.00;99046.60;1766139;79;21185;-50
2021/01/01 12:44:27;;;;;;;8.55;6.25;;;;;;;9.16;100.00;99041.37;1764543;79;21141;-56
2021/01/01 12:46:57;;;;;;;9.15;6.65;;;;;;;9.16;100.00;99048.10;1756377;78;21018;-54